Time;durP1;ratioP1;P1;durP2;ratioP2;P2;SDS_P1;SDS_P2;PMS_P1;PMS_P2;Temp;Humidity;BMP_temperature;BMP_pressure;BME280_temperature;BME280_humidity;BME280_pressure;Samples;Min_cycle;Max_cycle;Signal;HPM_P1;HPM_P2
2022/12/07 00:01:29;;;;;;;7.20;5.10;;;;;;;;;;5047944;28;20374;-78
2022/12/07 00:04:00;;;;;;;8.23;6.03;;;;;;;;;;5048748;28;20175;-78
2022/12/07 00:06:25;;;;;;;8.80;5.60;;;;;;;;;;5045636;28;20262;-78
2022/12/07 00:08:50;;;;;;;8.40;5.67;;;;;;;;;;5050809;28;20236;-78
2022/12/07 00:11:17;;;;;;;6.13;4.80;;;;;;;;;;5048919;28;20210;-78
2022/12/07 00:13:43;;;;;;;6.03;4.60;;;;;;;;;;5045504;28;20198;-78
2022/12/07 00:16:10;;;;;;;7.20;5.80;;;;;;;;;;5043810;28;20182;-78
2022/12/07 00:18:36;;;;;;;6.80;5.23;;;;;;;;;;5043336;28;20344;-78
2022/12/07 00:21:02;;;;;;;6.80;5.30;;;;;;;;;;5062368;28;20246;-78
2022/12/07 00:23:27;;;;;;;8.77;5.80;;;;;;;;;;5046211;28;20175;-78
2022/12/07 00:25:52;;;;;;;7.93;5.73;;;;;;;;;;5044060;28;20185;-78
2022/12/07 00:28:17;;;;;;;6.70;5.17;;;;;;;;;;5046300;28;20277;-78
2022/12/07 00:30:42;;;;;;;6.20;4.97;;;;;;;;;;5046872;28;20222;-78
2022/12/07 00:33:07;;;;;;;8.43;5.97;;;;;;;;;;5041241;28;20181;-78
2022/12/07 00:35:33;;;;;;;8.27;5.73;;;;;;;;;;5046710;28;20225;-78
2022/12/07 00:37:58;;;;;;;8.83;5.57;;;;;;;;;;5047874;28;20301;-78
2022/12/07 00:40:23;;;;;;;8.07;5.97;;;;;;;;;;5046257;28;20182;-78
2022/12/07 00:42:48;;;;;;;9.67;6.50;;;;;;;;;;5042836;28;20186;-78
2022/12/07 00:45:14;;;;;;;7.60;5.80;;;;;;;;;;5052316;28;20181;-78
2022/12/07 00:47:39;;;;;;;8.17;6.47;;;;;;;;;;5047379;28;20247;-78
2022/12/07 00:50:04;;;;;;;8.07;6.13;;;;;;;;;;5047424;28;20244;-78
2022/12/07 00:52:29;;;;;;;8.40;6.73;;;;;;;;;;5047139;28;20178;-78
2022/12/07 00:54:55;;;;;;;9.57;6.43;;;;;;;;;;5036949;28;20185;-78
2022/12/07 00:57:20;;;;;;;7.90;6.10;;;;;;;;;;5046292;28;20174;-78
2022/12/07 00:59:45;;;;;;;8.57;5.67;;;;;;;;;;5038791;28;20178;-78
2022/12/07 01:02:10;;;;;;;6.37;5.70;;;;;;;;;;5047200;28;20182;-78
2022/12/07 01:04:35;;;;;;;7.00;5.40;;;;;;;;;;5042801;28;20178;-78
2022/12/07 01:07:01;;;;;;;7.73;5.70;;;;;;;;;;5042588;28;20185;-78
2022/12/07 01:09:26;;;;;;;6.60;5.53;;;;;;;;;;5045382;28;20209;-78
2022/12/07 01:11:51;;;;;;;7.27;5.47;;;;;;;;;;5043169;28;20200;-78
2022/12/07 01:14:16;;;;;;;6.50;5.60;;;;;;;;;;5046087;28;20205;-78
2022/12/07 01:16:41;;;;;;;7.83;6.07;;;;;;;;;;5044302;28;20186;-78
2022/12/07 01:19:07;;;;;;;7.00;5.50;;;;;;;;;;5065456;28;20198;-78
2022/12/07 01:21:37;;;;;;;6.93;5.40;;;;;;;;;;5043279;28;20184;-78
2022/12/07 01:24:03;;;;;;;7.33;6.00;;;;;;;;;;5036145;28;20189;-78
2022/12/07 01:26:28;;;;;;;6.63;5.73;;;;;;;;;;5046503;28;20174;-78
2022/12/07 01:28:54;;;;;;;6.13;4.93;;;;;;;;;;5045762;28;20186;-78
2022/12/07 01:31:21;;;;;;;5.70;5.10;;;;;;;;;;5044109;28;20244;-78
2022/12/07 01:33:48;;;;;;;6.50;5.27;;;;;;;;;;5045752;28;20202;-78
2022/12/07 01:36:19;;;;;;;6.70;5.07;;;;;;;;;;5050518;28;20202;-78
2022/12/07 01:38:45;;;;;;;5.93;4.63;;;;;;;;;;5045297;28;20174;-78
2022/12/07 01:41:11;;;;;;;7.83;3.53;;;;;;;;;;5047596;28;20223;-78
2022/12/07 01:43:36;;;;;;;7.80;5.23;;;;;;;;;;5049281;28;20304;-78
2022/12/07 01:46:02;;;;;;;6.33;4.63;;;;;;;;;;5048191;28;20182;-78
2022/12/07 01:48:30;;;;;;;5.63;4.37;;;;;;;;;;5047445;28;20214;-78
2022/12/07 01:50:56;;;;;;;6.40;4.67;;;;;;;;;;5046572;28;20636;-78
2022/12/07 01:53:24;;;;;;;7.57;5.50;;;;;;;;;;5045689;28;20179;-78
2022/12/07 01:55:51;;;;;;;9.10;5.93;;;;;;;;;;5043533;28;20182;-78
2022/12/07 01:58:17;;;;;;;6.13;5.13;;;;;;;;;;5047906;28;20182;-78
2022/12/07 02:00:42;;;;;;;6.10;5.03;;;;;;;;;;5045666;28;20185;-78
2022/12/07 02:03:10;;;;;;;7.00;5.70;;;;;;;;;;5043695;28;20193;-78
2022/12/07 02:05:38;;;;;;;7.53;5.43;;;;;;;;;;5045482;28;20223;-78
2022/12/07 02:08:03;;;;;;;6.40;5.20;;;;;;;;;;5044120;28;20190;-78
2022/12/07 02:10:29;;;;;;;8.40;5.57;;;;;;;;;;5042291;28;20419;-78
2022/12/07 02:12:57;;;;;;;8.23;6.33;;;;;;;;;;5047714;28;20261;-78
2022/12/07 02:15:27;;;;;;;6.97;5.67;;;;;;;;;;5043143;28;20202;-78
2022/12/07 02:18:00;;;;;;;7.03;5.67;;;;;;;;;;5051415;28;20268;-78
2022/12/07 02:20:32;;;;;;;6.67;4.97;;;;;;;;;;5052985;28;20265;-78
2022/12/07 02:23:07;;;;;;;7.43;5.90;;;;;;;;;;5047628;28;20269;-78
2022/12/07 02:25:39;;;;;;;7.43;5.63;;;;;;;;;;5049301;28;20184;-78
2022/12/07 02:28:23;;;;;;;7.77;5.90;;;;;;;;;;5049810;28;20201;-78
2022/12/07 02:30:49;;;;;;;7.87;6.13;;;;;;;;;;5040877;28;20244;-78
2022/12/07 02:33:28;;;;;;;6.77;5.43;;;;;;;;;;5047151;28;20193;-78
2022/12/07 02:35:56;;;;;;;6.57;5.67;;;;;;;;;;5050186;28;20170;-78
2022/12/07 02:38:29;;;;;;;7.13;5.80;;;;;;;;;;5051685;28;20186;-78
2022/12/07 02:40:55;;;;;;;6.57;5.27;;;;;;;;;;5052616;28;20182;-78
2022/12/07 02:43:28;;;;;;;6.63;5.43;;;;;;;;;;5052214;28;20186;-78
2022/12/07 02:45:56;;;;;;;7.27;5.73;;;;;;;;;;5048427;28;20178;-78
2022/12/07 02:48:21;;;;;;;7.50;5.70;;;;;;;;;;5051206;28;20196;-78
2022/12/07 02:50:51;;;;;;;8.50;6.27;;;;;;;;;;5050106;28;20190;-78
2022/12/07 02:53:36;;;;;;;8.60;6.33;;;;;;;;;;5043874;28;20178;-78
2022/12/07 02:56:22;;;;;;;8.37;6.80;;;;;;;;;;5046572;28;20177;-78
2022/12/07 02:58:58;;;;;;;8.93;6.90;;;;;;;;;;5053926;28;20242;-78
2022/12/07 03:01:42;;;;;;;10.23;7.13;;;;;;;;;;5047099;28;20178;-78
2022/12/07 03:04:29;;;;;;;7.40;5.90;;;;;;;;;;5050839;28;20269;-78
2022/12/07 03:07:01;;;;;;;9.50;6.83;;;;;;;;;;5067255;28;20224;-78
2022/12/07 03:09:26;;;;;;;8.50;6.27;;;;;;;;;;5049080;28;20202;-78
2022/12/07 03:11:57;;;;;;;6.80;5.20;;;;;;;;;;5042843;28;20218;-78
2022/12/07 03:14:24;;;;;;;7.40;6.17;;;;;;;;;;5042390;28;20204;-78
2022/12/07 03:16:55;;;;;;;7.00;5.27;;;;;;;;;;5049420;28;20224;-78
2022/12/07 03:19:21;;;;;;;8.00;6.10;;;;;;;;;;5050776;28;20241;-78
2022/12/07 03:21:49;;;;;;;8.13;6.33;;;;;;;;;;5050877;28;20182;-78
2022/12/07 03:24:20;;;;;;;8.40;6.37;;;;;;;;;;5045790;28;20181;-78
2022/12/07 03:26:47;;;;;;;9.67;6.00;;;;;;;;;;5051238;28;20182;-78
2022/12/07 03:29:24;;;;;;;10.23;7.43;;;;;;;;;;5048393;28;20185;-78
2022/12/07 03:31:52;;;;;;;9.87;7.07;;;;;;;;;;5021098;28;20342;-78
2022/12/07 03:34:23;;;;;;;7.83;6.53;;;;;;;;;;5007409;28;20177;-78
2022/12/07 03:36:59;;;;;;;9.90;6.30;;;;;;;;;;5016437;28;20261;-78
2022/12/07 03:39:31;;;;;;;8.53;6.20;;;;;;;;;;5013007;28;20178;-78
2022/12/07 03:41:58;;;;;;;6.83;5.70;;;;;;;;;;5004789;28;20178;-78
2022/12/07 03:44:23;;;;;;;8.33;6.30;;;;;;;;;;5015078;28;20183;-78
2022/12/07 03:46:59;;;;;;;9.97;6.87;;;;;;;;;;5010848;28;20181;-78
2022/12/07 03:49:28;;;;;;;8.50;6.67;;;;;;;;;;5012898;28;20197;-78
2022/12/07 03:52:12;;;;;;;7.10;5.40;;;;;;;;;;5013077;28;20202;-78
2022/12/07 03:54:57;;;;;;;8.03;5.77;;;;;;;;;;5020884;28;20178;-78
2022/12/07 03:57:24;;;;;;;7.07;5.87;;;;;;;;;;5022970;28;20210;-78
2022/12/07 03:59:49;;;;;;;7.67;5.63;;;;;;;;;;5013427;28;20325;-78
2022/12/07 04:02:15;;;;;;;7.83;5.47;;;;;;;;;;5010415;28;20273;-78
2022/12/07 04:04:41;;;;;;;7.57;5.47;;;;;;;;;;5004732;28;20180;-78
2022/12/07 04:07:06;;;;;;;6.73;5.10;;;;;;;;;;5007956;28;20190;-78
2022/12/07 04:09:31;;;;;;;7.43;6.10;;;;;;;;;;5009066;28;20221;-78
2022/12/07 04:11:56;;;;;;;7.53;5.03;;;;;;;;;;5018639;28;20190;-78
2022/12/07 04:14:21;;;;;;;7.70;6.33;;;;;;;;;;5014487;28;20261;-78
2022/12/07 04:16:57;;;;;;;6.87;5.10;;;;;;;;;;5015311;28;20317;-78
2022/12/07 04:19:23;;;;;;;5.63;4.50;;;;;;;;;;5011981;28;20182;-78
2022/12/07 04:21:48;;;;;;;5.03;4.10;;;;;;;;;;5014154;28;20254;-78
2022/12/07 04:24:15;;;;;;;4.70;3.73;;;;;;;;;;5018304;28;20267;-78
2022/12/07 04:26:41;;;;;;;4.67;3.80;;;;;;;;;;5011123;28;20175;-78
2022/12/07 04:29:06;;;;;;;6.13;4.27;;;;;;;;;;5010250;28;20182;-78
2022/12/07 04:31:31;;;;;;;4.60;4.10;;;;;;;;;;5045919;28;20221;-78
2022/12/07 04:33:56;;;;;;;7.13;5.57;;;;;;;;;;5048730;28;20249;-78
2022/12/07 04:36:22;;;;;;;4.17;3.77;;;;;;;;;;5043931;28;20268;-78
2022/12/07 04:38:47;;;;;;;4.63;3.90;;;;;;;;;;5041108;28;20181;-78
2022/12/07 04:41:12;;;;;;;6.60;5.10;;;;;;;;;;5043923;28;20197;-78
2022/12/07 04:43:37;;;;;;;5.37;4.87;;;;;;;;;;5054515;28;20185;-78
2022/12/07 04:46:03;;;;;;;5.80;5.00;;;;;;;;;;5048653;28;20174;-78
2022/12/07 04:48:28;;;;;;;4.20;3.80;;;;;;;;;;5046649;28;20202;-78
2022/12/07 04:50:53;;;;;;;5.57;4.60;;;;;;;;;;5046985;28;20228;-78
2022/12/07 04:53:19;;;;;;;4.90;4.27;;;;;;;;;;5044433;28;20178;-78
2022/12/07 04:55:44;;;;;;;4.93;3.50;;;;;;;;;;5045287;28;20174;-78
2022/12/07 04:58:09;;;;;;;3.33;2.83;;;;;;;;;;5048903;28;20201;-78
2022/12/07 05:00:35;;;;;;;3.90;3.30;;;;;;;;;;5044037;28;20189;-78
2022/12/07 05:03:00;;;;;;;5.67;3.53;;;;;;;;;;5039831;28;20189;-78
2022/12/07 05:05:25;;;;;;;4.97;3.87;;;;;;;;;;5043969;28;20209;-78
2022/12/07 05:07:50;;;;;;;5.07;3.70;;;;;;;;;;5044959;28;20202;-78
2022/12/07 05:10:16;;;;;;;5.43;3.87;;;;;;;;;;5046393;28;20253;-78
2022/12/07 05:12:41;;;;;;;3.80;3.20;;;;;;;;;;5046664;28;20174;-78
2022/12/07 05:15:06;;;;;;;3.53;3.23;;;;;;;;;;5050567;28;20226;-78
2022/12/07 05:17:31;;;;;;;3.40;2.90;;;;;;;;;;5044311;28;20251;-78
2022/12/07 05:19:57;;;;;;;3.03;2.70;;;;;;;;;;5043168;28;20185;-78
2022/12/07 05:22:22;;;;;;;3.40;2.80;;;;;;;;;;5050537;28;20331;-78
2022/12/07 05:24:47;;;;;;;3.90;3.10;;;;;;;;;;5050255;28;20211;-78
2022/12/07 05:27:12;;;;;;;4.00;3.13;;;;;;;;;;5045383;28;20197;-78
2022/12/07 05:29:38;;;;;;;3.57;3.20;;;;;;;;;;5044463;28;20307;-78
2022/12/07 05:32:03;;;;;;;3.70;3.30;;;;;;;;;;5046564;28;20186;-78
2022/12/07 05:34:28;;;;;;;4.37;3.40;;;;;;;;;;5037103;28;20182;-78
2022/12/07 05:36:53;;;;;;;4.50;3.90;;;;;;;;;;5040019;28;20186;-78
2022/12/07 05:39:18;;;;;;;4.47;3.83;;;;;;;;;;5044426;28;20174;-78
2022/12/07 05:44:27;;;;;;;6.27;3.47;;;;;;;;;;5050229;28;20228;-78
2022/12/07 05:46:53;;;;;;;4.10;3.40;;;;;;;;;;5046737;28;20241;-78
2022/12/07 05:49:18;;;;;;;3.90;3.20;;;;;;;;;;5039854;28;20273;-78
2022/12/07 05:51:43;;;;;;;5.57;3.33;;;;;;;;;;5041410;28;20198;-78
2022/12/07 05:54:08;;;;;;;4.73;3.37;;;;;;;;;;5050024;28;20173;-77
2022/12/07 05:56:34;;;;;;;4.90;4.00;;;;;;;;;;5051786;28;20177;-78
2022/12/07 06:01:43;;;;;;;9.10;7.20;;;;;;;;;;5043988;28;20255;-78
2022/12/07 06:04:08;;;;;;;8.03;6.23;;;;;;;;;;5044500;28;20254;-78
2022/12/07 06:06:33;;;;;;;4.90;4.40;;;;;;;;;;5064530;28;20198;-79
2022/12/07 06:08:58;;;;;;;10.17;9.17;;;;;;;;;;5046018;28;20287;-79
2022/12/07 06:14:08;;;;;;;10.23;8.13;;;;;;;;;;5048613;28;20212;-80
2022/12/07 06:16:33;;;;;;;4.73;4.23;;;;;;;;;;5047990;28;20194;-80
2022/12/07 06:18:58;;;;;;;5.80;4.63;;;;;;;;;;5049952;28;20190;-80
2022/12/07 06:21:25;;;;;;;6.53;4.37;;;;;;;;;;5047386;28;20173;-80
2022/12/07 06:23:50;;;;;;;4.87;4.37;;;;;;;;;;5055822;28;20190;-80
2022/12/07 06:26:15;;;;;;;4.90;4.00;;;;;;;;;;5049894;28;20188;-80
2022/12/07 06:28:41;;;;;;;6.03;4.30;;;;;;;;;;5053095;28;20181;-80
2022/12/07 06:31:07;;;;;;;5.43;4.77;;;;;;;;;;5047671;28;20241;-80
2022/12/07 06:33:32;;;;;;;5.03;3.73;;;;;;;;;;5055786;28;20178;-80
2022/12/07 06:35:57;;;;;;;4.73;3.83;;;;;;;;;;5044023;28;20170;-79
2022/12/07 06:38:22;;;;;;;5.13;4.43;;;;;;;;;;5059873;28;20182;-80
2022/12/07 06:40:48;;;;;;;5.47;4.33;;;;;;;;;;5053832;28;20358;-80
2022/12/07 06:43:13;;;;;;;5.17;4.67;;;;;;;;;;5047717;28;20178;-80
2022/12/07 06:45:38;;;;;;;5.70;4.73;;;;;;;;;;5049553;28;20171;-80
2022/12/07 06:48:03;;;;;;;6.50;5.03;;;;;;;;;;5046204;28;20189;-80
2022/12/07 06:50:29;;;;;;;5.80;4.03;;;;;;;;;;5051541;28;20245;-80
2022/12/07 06:52:54;;;;;;;8.27;6.73;;;;;;;;;;5044526;28;20184;-80
2022/12/07 06:55:19;;;;;;;5.63;5.00;;;;;;;;;;5049821;28;20170;-80
2022/12/07 06:57:44;;;;;;;6.87;6.17;;;;;;;;;;5048367;28;20182;-80
2022/12/07 07:00:10;;;;;;;7.17;6.43;;;;;;;;;;5045844;28;20181;-80
2022/12/07 07:02:35;;;;;;;7.43;6.73;;;;;;;;;;5049654;28;20182;-80
2022/12/07 07:05:00;;;;;;;27.47;19.83;;;;;;;;;;5045611;28;20189;-80
2022/12/07 07:07:26;;;;;;;7.10;5.20;;;;;;;;;;5049054;28;20170;-80
2022/12/07 07:09:51;;;;;;;5.83;4.87;;;;;;;;;;5048098;28;20186;-80
2022/12/07 07:12:16;;;;;;;5.03;4.50;;;;;;;;;;5047697;28;20169;-80
2022/12/07 07:14:42;;;;;;;5.90;4.60;;;;;;;;;;5046273;28;20174;-80
2022/12/07 07:17:08;;;;;;;5.30;4.10;;;;;;;;;;5048044;28;20202;-80
2022/12/07 07:19:33;;;;;;;4.23;3.60;;;;;;;;;;5044756;28;20170;-80
2022/12/07 07:21:58;;;;;;;4.33;3.93;;;;;;;;;;5049984;28;20265;-80
2022/12/07 07:24:23;;;;;;;5.20;4.27;;;;;;;;;;5050082;28;20287;-80
2022/12/07 07:26:49;;;;;;;5.17;4.63;;;;;;;;;;5041060;28;20174;-79
2022/12/07 07:29:14;;;;;;;4.87;3.90;;;;;;;;;;5045880;28;20192;-80
2022/12/07 07:31:39;;;;;;;5.27;4.07;;;;;;;;;;5006211;28;20210;-80
2022/12/07 07:34:04;;;;;;;4.13;3.73;;;;;;;;;;5015038;28;20182;-80
2022/12/07 07:36:30;;;;;;;3.80;3.40;;;;;;;;;;5007025;28;20276;-80
2022/12/07 07:38:55;;;;;;;4.47;3.77;;;;;;;;;;5003053;28;20238;-80
2022/12/07 07:41:20;;;;;;;5.60;4.07;;;;;;;;;;5004853;28;20190;-80
2022/12/07 07:43:45;;;;;;;12.27;9.80;;;;;;;;;;5004949;28;20233;-80
2022/12/07 07:46:10;;;;;;;4.83;4.10;;;;;;;;;;5006735;28;20264;-80
2022/12/07 07:48:36;;;;;;;4.90;3.70;;;;;;;;;;5014306;28;20181;-80
2022/12/07 07:51:04;;;;;;;6.20;4.03;;;;;;;;;;5013558;28;20276;-80
2022/12/07 07:53:29;;;;;;;3.77;3.33;;;;;;;;;;5001936;28;20286;-80
2022/12/07 07:55:54;;;;;;;4.90;4.10;;;;;;;;;;5007893;28;20168;-80
2022/12/07 07:58:20;;;;;;;6.67;4.77;;;;;;;;;;5027140;28;20217;-80
2022/12/07 08:00:45;;;;;;;5.33;4.50;;;;;;;;;;5007238;28;20183;-80
2022/12/07 08:03:10;;;;;;;6.37;4.10;;;;;;;;;;5005856;28;20190;-80
2022/12/07 08:05:36;;;;;;;5.20;4.20;;;;;;;;;;5005165;28;20171;-80
2022/12/07 08:08:02;;;;;;;4.80;3.70;;;;;;;;;;5018679;28;20182;-80
2022/12/07 08:10:27;;;;;;;4.83;3.23;;;;;;;;;;5006986;28;20205;-80
2022/12/07 08:13:11;;;;;;;5.80;4.23;;;;;;;;;;5012224;28;20168;-80
2022/12/07 08:15:38;;;;;;;7.20;5.53;;;;;;;;;;5015188;28;20175;-81
2022/12/07 08:18:03;;;;;;;6.20;5.13;;;;;;;;;;5013244;28;20332;-80
2022/12/07 08:20:30;;;;;;;9.47;5.63;;;;;;;;;;5015816;28;20273;-80
2022/12/07 08:22:55;;;;;;;5.50;4.73;;;;;;;;;;5013871;28;20182;-80
2022/12/07 08:25:21;;;;;;;5.13;4.07;;;;;;;;;;5016133;28;20289;-80
2022/12/07 08:27:47;;;;;;;7.67;4.43;;;;;;;;;;5001677;28;20210;-80
2022/12/07 08:30:13;;;;;;;5.43;4.70;;;;;;;;;;5014383;28;20319;-80
2022/12/07 08:32:38;;;;;;;6.80;4.83;;;;;;;;;;5019302;28;20461;-80
2022/12/07 08:35:03;;;;;;;9.77;5.63;;;;;;;;;;5011108;28;20181;-81
2022/12/07 08:37:28;;;;;;;9.90;5.83;;;;;;;;;;5013235;28;20174;-80
2022/12/07 08:39:54;;;;;;;5.93;4.47;;;;;;;;;;5016063;28;20188;-80
2022/12/07 08:42:19;;;;;;;6.20;5.23;;;;;;;;;;5017334;28;20175;-80
2022/12/07 08:44:45;;;;;;;12.03;8.63;;;;;;;;;;5011271;28;20171;-80
2022/12/07 08:47:11;;;;;;;8.20;4.93;;;;;;;;;;5005602;28;20175;-81
2022/12/07 08:49:38;;;;;;;18.30;11.43;;;;;;;;;;5010698;28;20182;-80
2022/12/07 08:52:03;;;;;;;10.40;7.80;;;;;;;;;;5007808;28;20203;-81
2022/12/07 08:54:29;;;;;;;12.97;8.73;;;;;;;;;;5009695;28;20182;-80
2022/12/07 08:56:54;;;;;;;9.67;8.37;;;;;;;;;;5024428;28;20257;-80
2022/12/07 08:59:20;;;;;;;6.03;5.07;;;;;;;;;;5012176;28;20221;-80
2022/12/07 09:01:45;;;;;;;7.43;5.30;;;;;;;;;;5010122;28;20186;-80
2022/12/07 09:04:11;;;;;;;9.40;7.13;;;;;;;;;;5009659;28;20183;-80
2022/12/07 09:06:36;;;;;;;11.10;8.03;;;;;;;;;;5007339;28;20179;-81
2022/12/07 09:09:02;;;;;;;7.43;5.43;;;;;;;;;;5003015;28;20493;-81
2022/12/07 09:11:27;;;;;;;9.47;5.50;;;;;;;;;;5011778;28;20203;-81
2022/12/07 09:13:52;;;;;;;7.30;5.30;;;;;;;;;;5013777;28;20175;-80
2022/12/07 09:16:17;;;;;;;8.20;6.30;;;;;;;;;;5002006;28;20171;-81
2022/12/07 09:18:43;;;;;;;9.00;6.60;;;;;;;;;;5023724;28;20257;-81
2022/12/07 09:21:08;;;;;;;12.30;10.33;;;;;;;;;;5011432;28;20181;-80
2022/12/07 09:23:33;;;;;;;9.67;6.10;;;;;;;;;;5002143;28;20191;-81
2022/12/07 09:26:00;;;;;;;10.13;7.10;;;;;;;;;;5011848;28;20175;-81
2022/12/07 09:28:25;;;;;;;10.47;6.50;;;;;;;;;;5011980;28;20186;-80
2022/12/07 09:30:50;;;;;;;8.90;6.83;;;;;;;;;;5028881;28;20233;-80
2022/12/07 09:33:17;;;;;;;12.17;6.57;;;;;;;;;;5041061;28;20209;-80
2022/12/07 09:35:46;;;;;;;10.43;6.77;;;;;;;;;;5060607;28;20182;-80
2022/12/07 09:38:12;;;;;;;9.33;6.53;;;;;;;;;;5039963;28;20181;-80
2022/12/07 09:40:37;;;;;;;8.50;5.37;;;;;;;;;;5043316;28;20186;-80
2022/12/07 09:43:02;;;;;;;4.47;3.90;;;;;;;;;;5038876;28;20181;-80
2022/12/07 09:45:33;;;;;;;5.87;4.73;;;;;;;;;;5044186;28;20483;-80
2022/12/07 09:47:59;;;;;;;7.03;4.80;;;;;;;;;;5041598;28;20185;-80
2022/12/07 09:50:26;;;;;;;5.13;4.40;;;;;;;;;;5040020;28;20448;-80
2022/12/07 09:52:51;;;;;;;9.67;5.53;;;;;;;;;;5048182;28;20181;-80
2022/12/07 09:55:23;;;;;;;7.40;4.90;;;;;;;;;;5044342;28;20182;-80
2022/12/07 09:57:51;;;;;;;6.20;3.90;;;;;;;;;;5059002;28;20182;-80
2022/12/07 10:00:17;;;;;;;4.33;3.93;;;;;;;;;;5042227;28;20190;-80
2022/12/07 10:02:59;;;;;;;6.13;4.57;;;;;;;;;;5060475;28;20186;-80
2022/12/07 10:05:27;;;;;;;9.77;5.97;;;;;;;;;;5042498;28;20467;-80
2022/12/07 10:07:52;;;;;;;7.37;5.03;;;;;;;;;;5043406;28;20225;-80
2022/12/07 10:10:22;;;;;;;6.80;4.23;;;;;;;;;;5046127;28;20212;-80
2022/12/07 10:13:08;;;;;;;7.83;4.47;;;;;;;;;;5049340;28;20177;-80
2022/12/07 10:15:47;;;;;;;4.57;3.27;;;;;;;;;;5064308;28;20205;-80
2022/12/07 10:18:19;;;;;;;6.00;4.10;;;;;;;;;;5048947;28;20205;-80
2022/12/07 10:20:45;;;;;;;4.17;3.70;;;;;;;;;;5048495;28;20186;-80
2022/12/07 10:23:15;;;;;;;3.27;2.93;;;;;;;;;;5042333;28;20178;-80
2022/12/07 10:25:40;;;;;;;4.60;3.50;;;;;;;;;;5049172;28;20182;-80
2022/12/07 10:28:16;;;;;;;3.77;2.93;;;;;;;;;;5046965;28;20189;-80
2022/12/07 10:30:48;;;;;;;4.33;3.87;;;;;;;;;;5046213;28;20222;-80
2022/12/07 10:33:31;;;;;;;5.00;4.00;;;;;;;;;;5043691;28;20268;-80
2022/12/07 10:35:57;;;;;;;5.57;4.43;;;;;;;;;;5046298;28;20201;-80
2022/12/07 10:38:24;;;;;;;8.53;6.87;;;;;;;;;;5049931;28;20217;-80
2022/12/07 10:41:02;;;;;;;3.83;3.17;;;;;;;;;;5049172;28;20182;-80
2022/12/07 10:43:27;;;;;;;5.33;4.47;;;;;;;;;;5045348;28;20179;-80
2022/12/07 10:46:08;;;;;;;6.73;4.60;;;;;;;;;;5051531;28;20188;-80
2022/12/07 10:48:53;;;;;;;4.63;4.20;;;;;;;;;;5044406;28;20255;-80
2022/12/07 10:51:35;;;;;;;7.87;4.20;;;;;;;;;;5032508;28;20214;-80
2022/12/07 10:54:09;;;;;;;5.97;5.37;;;;;;;;;;5045769;28;20368;-80
2022/12/07 10:56:35;;;;;;;5.17;4.33;;;;;;;;;;5049796;28;20289;-80
2022/12/07 10:59:00;;;;;;;5.10;4.60;;;;;;;;;;5068852;28;20277;-79
2022/12/07 11:01:30;;;;;;;5.73;4.10;;;;;;;;;;5049104;28;20286;-80
2022/12/07 11:03:58;;;;;;;8.10;6.13;;;;;;;;;;5041426;28;20199;-80
2022/12/07 11:06:42;;;;;;;6.57;4.83;;;;;;;;;;5045627;28;20182;-80
2022/12/07 11:09:20;;;;;;;8.23;5.80;;;;;;;;;;5046818;28;20224;-80
2022/12/07 11:12:08;;;;;;;6.50;4.90;;;;;;;;;;5038221;28;20209;-80
2022/12/07 11:14:41;;;;;;;7.37;5.67;;;;;;;;;;5013398;28;20182;-79
2022/12/07 11:17:09;;;;;;;7.73;6.03;;;;;;;;;;5049284;28;20193;-80
2022/12/07 11:19:50;;;;;;;6.97;5.87;;;;;;;;;;5044718;28;20171;-80
2022/12/07 11:22:28;;;;;;;5.60;3.77;;;;;;;;;;5046991;28;20197;-79
2022/12/07 11:24:59;;;;;;;5.07;3.80;;;;;;;;;;5045808;28;20239;-80
2022/12/07 11:27:44;;;;;;;4.67;4.00;;;;;;;;;;5046984;28;20206;-79
2022/12/07 11:30:32;;;;;;;4.73;4.10;;;;;;;;;;5047050;28;20225;-80
2022/12/07 11:32:57;;;;;;;4.03;3.00;;;;;;;;;;5039587;28;20179;-80
2022/12/07 11:35:43;;;;;;;5.27;4.03;;;;;;;;;;5043911;28;20214;-79
2022/12/07 11:38:11;;;;;;;4.97;4.17;;;;;;;;;;5025334;28;20217;-80
2022/12/07 11:40:38;;;;;;;5.37;4.77;;;;;;;;;;5048392;28;20184;-80
2022/12/07 11:43:16;;;;;;;5.33;3.60;;;;;;;;;;5067888;28;20185;-80
2022/12/07 11:45:42;;;;;;;6.53;5.23;;;;;;;;;;5047197;28;20184;-80
2022/12/07 11:48:14;;;;;;;6.77;5.70;;;;;;;;;;5045654;28;20190;-80
2022/12/07 11:50:41;;;;;;;7.93;6.73;;;;;;;;;;5046663;28;20202;-80
2022/12/07 11:53:25;;;;;;;8.13;6.13;;;;;;;;;;5050847;28;20169;-80
2022/12/07 11:56:09;;;;;;;9.67;7.90;;;;;;;;;;5043443;28;20204;-79
2022/12/07 11:58:47;;;;;;;10.20;8.40;;;;;;;;;;5047674;28;20268;-80
2022/12/07 12:01:25;;;;;;;10.87;7.90;;;;;;;;;;5047443;28;20236;-80
2022/12/07 12:03:52;;;;;;;13.20;9.87;;;;;;;;;;5042838;28;20261;-79
2022/12/07 12:06:18;;;;;;;15.33;10.57;;;;;;;;;;5045181;28;20202;-80
2022/12/07 12:08:47;;;;;;;11.87;8.50;;;;;;;;;;5044556;28;20238;-80
2022/12/07 12:11:16;;;;;;;13.83;9.93;;;;;;;;;;5050737;28;20261;-80
2022/12/07 12:13:44;;;;;;;11.63;9.00;;;;;;;;;;5046852;28;20257;-80
2022/12/07 12:16:09;;;;;;;15.53;10.53;;;;;;;;;;5045381;28;20261;-80
2022/12/07 12:18:34;;;;;;;11.80;8.53;;;;;;;;;;5044820;28;20278;-80
2022/12/07 12:21:06;;;;;;;12.25;9.02;;;;;;;;;;5045961;28;20174;-80
2022/12/07 12:23:51;;;;;;;16.47;10.30;;;;;;;;;;5042390;28;20295;-80
2022/12/07 12:26:21;;;;;;;14.23;11.23;;;;;;;;;;5065125;28;20192;-80
2022/12/07 12:28:54;;;;;;;12.80;8.87;;;;;;;;;;5046065;28;20174;-80
2022/12/07 12:31:22;;;;;;;25.07;18.30;;;;;;;;;;5047888;28;20234;-80
2022/12/07 12:33:52;;;;;;;13.57;9.63;;;;;;;;;;5048429;28;20170;-80
2022/12/07 12:36:19;;;;;;;13.90;9.83;;;;;;;;;;5049032;28;20236;-80
2022/12/07 12:39:02;;;;;;;15.63;10.73;;;;;;;;;;5045233;28;20828;-80
2022/12/07 12:44:14;;;;;;;15.60;10.07;;;;;;;;;;5041570;28;20189;-80
2022/12/07 12:46:59;;;;;;;11.73;9.07;;;;;;;;;;5048455;28;20178;-80
2022/12/07 12:49:32;;;;;;;11.47;8.80;;;;;;;;;;5045945;28;20194;-80
2022/12/07 12:51:58;;;;;;;10.50;7.70;;;;;;;;;;5046713;28;20201;-80
2022/12/07 12:54:28;;;;;;;12.10;9.13;;;;;;;;;;5050318;28;20179;-81
2022/12/07 12:57:12;;;;;;;11.77;8.67;;;;;;;;;;5045297;28;20209;-80
2022/12/07 12:59:46;;;;;;;44.70;21.30;;;;;;;;;;5042460;28;20265;-80
2022/12/07 13:02:24;;;;;;;9.07;8.03;;;;;;;;;;5044975;28;20181;-80
2022/12/07 13:05:01;;;;;;;10.27;7.90;;;;;;;;;;5049573;28;20170;-80
2022/12/07 13:07:51;;;;;;;11.87;9.10;;;;;;;;;;5047769;28;20205;-80
2022/12/07 13:10:28;;;;;;;28.93;21.50;;;;;;;;;;5044946;28;20208;-80
2022/12/07 13:13:08;;;;;;;11.53;7.40;;;;;;;;;;5050329;28;20183;-80
2022/12/07 13:15:38;;;;;;;13.20;9.33;;;;;;;;;;5046725;28;20317;-80
2022/12/07 13:18:04;;;;;;;16.27;9.83;;;;;;;;;;5043494;28;20193;-80
2022/12/07 13:20:49;;;;;;;11.93;10.50;;;;;;;;;;5045554;28;20233;-80
2022/12/07 13:23:16;;;;;;;13.57;10.13;;;;;;;;;;5042043;28;20175;-80
2022/12/07 13:25:48;;;;;;;16.63;13.00;;;;;;;;;;5045533;28;20177;-80
2022/12/07 13:28:17;;;;;;;14.77;9.13;;;;;;;;;;5044821;28;20220;-80
2022/12/07 13:30:45;;;;;;;9.50;7.00;;;;;;;;;;5050418;28;20272;-80
2022/12/07 13:33:11;;;;;;;14.43;9.33;;;;;;;;;;5041091;28;20190;-80
2022/12/07 13:35:40;;;;;;;9.67;8.00;;;;;;;;;;5042621;28;20174;-80
2022/12/07 13:38:26;;;;;;;9.63;8.13;;;;;;;;;;5041573;28;20174;-80
2022/12/07 13:41:00;;;;;;;7.47;6.63;;;;;;;;;;5025718;28;20182;-80
2022/12/07 13:43:25;;;;;;;7.87;5.77;;;;;;;;;;5041653;28;20399;-80
2022/12/07 13:45:55;;;;;;;7.67;6.50;;;;;;;;;;5043388;28;20289;-81
2022/12/07 13:48:36;;;;;;;5.53;4.83;;;;;;;;;;5043519;28;20185;-80
2022/12/07 13:51:03;;;;;;;6.67;5.87;;;;;;;;;;5045533;28;20201;-80
2022/12/07 13:53:30;;;;;;;6.67;5.57;;;;;;;;;;5052972;28;20182;-80
2022/12/07 13:55:55;;;;;;;6.70;5.73;;;;;;;;;;5041163;28;20178;-80
2022/12/07 13:58:21;;;;;;;8.87;6.03;;;;;;;;;;5048863;28;20181;-80
2022/12/07 14:00:47;;;;;;;5.70;4.80;;;;;;;;;;5050650;28;20210;-80
2022/12/07 14:03:12;;;;;;;8.07;4.90;;;;;;;;;;5044645;28;20247;-80
2022/12/07 14:05:38;;;;;;;6.70;5.43;;;;;;;;;;5047746;28;20174;-80
2022/12/07 14:08:05;;;;;;;7.47;5.97;;;;;;;;;;5042838;28;20178;-80
2022/12/07 14:10:33;;;;;;;7.17;4.53;;;;;;;;;;5049598;28;20194;-80
2022/12/07 14:12:59;;;;;;;10.67;7.60;;;;;;;;;;5048037;28;20194;-80
2022/12/07 14:15:29;;;;;;;8.40;6.73;;;;;;;;;;5049903;28;20213;-80
2022/12/07 14:17:55;;;;;;;10.33;7.17;;;;;;;;;;5044613;28;20264;-80
2022/12/07 14:20:37;;;;;;;10.00;6.83;;;;;;;;;;5048853;28;20174;-80
2022/12/07 14:23:08;;;;;;;13.83;9.07;;;;;;;;;;5042252;28;20261;-80
2022/12/07 14:25:44;;;;;;;7.57;6.00;;;;;;;;;;5067061;28;20182;-80
2022/12/07 14:28:24;;;;;;;11.00;8.27;;;;;;;;;;5047186;28;20174;-80
2022/12/07 14:30:49;;;;;;;10.73;9.07;;;;;;;;;;5040108;28;20317;-80
2022/12/07 14:33:14;;;;;;;9.60;7.63;;;;;;;;;;5009699;28;20261;-80
2022/12/07 14:35:40;;;;;;;11.40;7.07;;;;;;;;;;5013113;28;20169;-81
2022/12/07 14:38:05;;;;;;;7.93;6.40;;;;;;;;;;5031402;28;20187;-80
2022/12/07 14:40:31;;;;;;;11.70;8.17;;;;;;;;;;5011743;28;20262;-80
2022/12/07 14:42:59;;;;;;;16.33;10.97;;;;;;;;;;5015414;28;20190;-80
2022/12/07 14:45:25;;;;;;;12.13;9.30;;;;;;;;;;5012704;28;20190;-80
2022/12/07 14:47:50;;;;;;;11.27;7.50;;;;;;;;;;5030734;28;20194;-80
2022/12/07 14:50:17;;;;;;;10.43;8.23;;;;;;;;;;5012982;28;20197;-80
2022/12/07 14:53:02;;;;;;;9.30;6.87;;;;;;;;;;5012058;28;20182;-80
2022/12/07 14:55:29;;;;;;;9.03;6.17;;;;;;;;;;5024852;28;20237;-80
2022/12/07 14:57:55;;;;;;;7.80;5.47;;;;;;;;;;5012648;28;20229;-80
2022/12/07 15:00:21;;;;;;;9.10;7.50;;;;;;;;;;5010964;28;20277;-80